Time;durP1;ratioP1;P1;durP2;ratioP2;P2;SDS_P1;SDS_P2;PMS_P1;PMS_P2;Temp;Humidity;BMP_temperature;BMP_pressure;BME280_temperature;BME280_humidity;BME280_pressure;Samples;Min_cycle;Max_cycle;Signal;HPM_P1;HPM_P2
2022/03/01 00:02:02;;;;;;;77.95;40.08;;;1.90;99.90;;;;;;5094600;28;20046;-54
2022/03/01 00:04:28;;;;;;;90.05;43.67;;;2.00;99.90;;;;;;5094212;28;20071;-54
2022/03/01 00:06:54;;;;;;;83.65;40.38;;;2.00;99.90;;;;;;5094558;28;20028;-54
2022/03/01 00:09:20;;;;;;;75.38;40.63;;;2.00;99.90;;;;;;5094464;28;20058;-55
2022/03/01 00:11:46;;;;;;;74.97;37.83;;;2.00;99.90;;;;;;5094464;28;20028;-54
2022/03/01 00:14:12;;;;;;;74.05;36.58;;;2.10;99.90;;;;;;5094296;28;20032;-54
2022/03/01 00:16:38;;;;;;;77.72;36.83;;;2.00;99.90;;;;;;5094450;28;20032;-55
2022/03/01 00:19:04;;;;;;;74.28;38.17;;;2.00;99.90;;;;;;5094336;28;20264;-54
2022/03/01 00:21:30;;;;;;;84.93;42.03;;;2.00;99.90;;;;;;5095640;28;20047;-55
2022/03/01 00:23:56;;;;;;;83.70;41.92;;;2.00;99.90;;;;;;5098264;28;20020;-54
2022/03/01 00:26:23;;;;;;;79.50;41.83;;;2.00;99.90;;;;;;5098405;28;20077;-54
2022/03/01 00:28:49;;;;;;;86.53;42.13;;;1.90;99.90;;;;;;5098408;28;20110;-54
2022/03/01 00:31:15;;;;;;;85.97;42.13;;;1.90;99.90;;;;;;5098242;28;20035;-55
2022/03/01 00:33:42;;;;;;;69.15;36.60;;;2.00;99.90;;;;;;5098421;28;20078;-54
2022/03/01 00:36:09;;;;;;;68.90;35.78;;;2.00;99.90;;;;;;5098288;28;20121;-54
2022/03/01 00:38:36;;;;;;;63.25;33.53;;;2.00;99.90;;;;;;5097896;28;20059;-54
2022/03/01 00:41:02;;;;;;;58.20;31.63;;;2.00;99.90;;;;;;5098202;28;20337;-54
2022/03/01 00:43:28;;;;;;;54.40;31.27;;;2.00;99.90;;;;;;5098028;28;20027;-54
2022/03/01 00:45:55;;;;;;;54.65;29.08;;;2.00;99.90;;;;;;5097981;28;20452;-55
2022/03/01 00:48:21;;;;;;;49.22;28.35;;;2.00;99.90;;;;;;5098063;28;20413;-54
2022/03/01 00:50:48;;;;;;;55.58;29.27;;;1.90;99.90;;;;;;5097970;28;20032;-55
2022/03/01 00:53:14;;;;;;;50.63;27.77;;;2.00;99.90;;;;;;5097832;28;20028;-55
2022/03/01 00:55:40;;;;;;;57.80;28.30;;;2.00;99.90;;;;;;5098049;28;20032;-54
2022/03/01 00:58:06;;;;;;;47.35;26.10;;;2.00;99.90;;;;;;5097642;28;20044;-55
2022/03/01 01:00:33;;;;;;;48.53;27.23;;;2.00;99.90;;;;;;5097554;28;20020;-55
2022/03/01 01:03:00;;;;;;;48.58;26.38;;;1.90;99.90;;;;;;5097334;28;20035;-54
2022/03/01 01:05:26;;;;;;;40.88;23.80;;;1.90;99.90;;;;;;5097521;28;20031;-55
2022/03/01 01:07:53;;;;;;;44.08;23.30;;;1.90;99.90;;;;;;5097554;28;20020;-55
2022/03/01 01:10:20;;;;;;;45.60;24.48;;;1.90;99.90;;;;;;5097787;28;20065;-55
2022/03/01 01:12:47;;;;;;;44.78;24.67;;;1.90;99.90;;;;;;5097369;28;20115;-54
2022/03/01 01:15:17;;;;;;;49.55;26.88;;;1.90;99.90;;;;;;5097327;28;20144;-55
2022/03/01 01:17:43;;;;;;;41.53;23.23;;;1.90;99.90;;;;;;5097450;28;20032;-55
2022/03/01 01:20:10;;;;;;;39.70;22.65;;;2.00;99.90;;;;;;5097266;28;20484;-55
2022/03/01 01:22:39;;;;;;;36.80;21.67;;;2.00;99.90;;;;;;5097157;28;20382;-55
2022/03/01 01:25:14;;;;;;;37.88;21.65;;;2.00;99.90;;;;;;5097265;28;20111;-55
2022/03/01 01:27:42;;;;;;;37.10;21.95;;;2.00;99.90;;;;;;5097110;28;20527;-55
2022/03/01 01:30:11;;;;;;;36.13;21.33;;;2.10;99.90;;;;;;5097250;28;20028;-55
2022/03/01 01:32:38;;;;;;;33.47;19.85;;;2.00;99.90;;;;;;5096742;28;20046;-55
2022/03/01 01:35:05;;;;;;;33.55;20.42;;;2.00;99.90;;;;;;5096789;28;20028;-55
2022/03/01 01:37:32;;;;;;;32.17;18.75;;;2.00;99.90;;;;;;5097123;28;20505;-55
2022/03/01 01:39:57;;;;;;;38.63;22.23;;;1.90;99.90;;;;;;5096913;28;20032;-55
2022/03/01 01:42:23;;;;;;;45.35;25.08;;;1.90;99.90;;;;;;5096953;28;20377;-55
2022/03/01 01:44:49;;;;;;;43.22;23.80;;;2.00;99.90;;;;;;5096927;28;20030;-55
2022/03/01 01:47:15;;;;;;;39.25;21.30;;;2.00;99.90;;;;;;5096820;28;20024;-55
2022/03/01 01:49:41;;;;;;;30.65;16.70;;;2.00;99.90;;;;;;5096805;28;20036;-55
2022/03/01 01:52:08;;;;;;;28.90;16.23;;;2.00;99.90;;;;;;5096763;28;20530;-55
2022/03/01 01:54:34;;;;;;;24.52;14.48;;;1.80;99.90;;;;;;5096866;28;20035;-55
2022/03/01 01:57:00;;;;;;;23.60;14.30;;;1.90;99.90;;;;;;5096656;28;20035;-55
2022/03/01 01:59:26;;;;;;;24.98;14.30;;;1.80;99.90;;;;;;5096406;28;20047;-55
2022/03/01 02:01:52;;;;;;;28.60;15.48;;;1.90;99.90;;;;;;5096541;28;20024;-55
2022/03/01 02:04:18;;;;;;;24.33;14.43;;;1.90;99.90;;;;;;5096470;28;20034;-55
2022/03/01 02:06:52;;;;;;;22.08;13.27;;;1.90;99.90;;;;;;5096279;28;20059;-55
2022/03/01 02:09:18;;;;;;;21.40;13.48;;;1.90;99.90;;;;;;5096498;28;20032;-55
2022/03/01 02:11:44;;;;;;;19.00;11.63;;;1.90;99.90;;;;;;5096455;28;20020;-55
2022/03/01 02:14:10;;;;;;;18.38;11.63;;;1.90;99.90;;;;;;5096267;28;20032;-55
2022/03/01 02:16:37;;;;;;;20.45;12.38;;;2.00;99.90;;;;;;5096299;28;20033;-55
2022/03/01 02:19:10;;;;;;;17.73;11.75;;;1.90;99.90;;;;;;5096113;28;20039;-55
2022/03/01 02:21:36;;;;;;;17.65;11.70;;;1.80;99.90;;;;;;5096205;28;20103;-55
2022/03/01 02:24:02;;;;;;;18.23;12.15;;;1.90;99.90;;;;;;5096183;28;20064;-55
2022/03/01 02:26:28;;;;;;;21.38;13.00;;;1.90;99.90;;;;;;5095995;28;20040;-55
2022/03/01 02:28:54;;;;;;;19.00;12.63;;;1.90;99.90;;;;;;5095930;28;20054;-55
2022/03/01 02:31:20;;;;;;;23.33;15.10;;;1.90;99.90;;;;;;5096117;28;20107;-55
2022/03/01 02:33:46;;;;;;;22.13;13.60;;;1.90;99.90;;;;;;5095892;28;20035;-55
2022/03/01 02:36:12;;;;;;;22.92;13.98;;;1.90;99.90;;;;;;5095974;28;20093;-55
2022/03/01 02:38:38;;;;;;;24.50;14.13;;;1.80;99.90;;;;;;5095806;28;20043;-55
2022/03/01 02:41:04;;;;;;;21.83;14.15;;;1.80;99.90;;;;;;5095960;28;20119;-55
2022/03/01 02:43:30;;;;;;;25.05;15.02;;;1.80;99.90;;;;;;5095780;28;20028;-55
2022/03/01 02:45:56;;;;;;;23.58;14.80;;;1.90;99.90;;;;;;5094637;28;20023;-55
2022/03/01 02:48:22;;;;;;;26.38;15.55;;;1.90;99.90;;;;;;5095784;28;20400;-55
2022/03/01 02:50:48;;;;;;;28.98;17.15;;;1.90;99.90;;;;;;5095651;28;20043;-55
2022/03/01 02:53:14;;;;;;;25.52;15.85;;;1.80;99.90;;;;;;5095500;28;20122;-55
2022/03/01 02:55:39;;;;;;;29.17;17.20;;;1.80;99.90;;;;;;5095576;28;20028;-55
2022/03/01 02:58:05;;;;;;;31.20;18.73;;;1.80;99.90;;;;;;5095365;28;20052;-55
2022/03/01 03:00:31;;;;;;;33.67;18.50;;;1.80;99.90;;;;;;5095416;28;20032;-55
2022/03/01 03:02:58;;;;;;;32.67;18.88;;;1.90;99.90;;;;;;5095212;28;20020;-55
2022/03/01 03:05:24;;;;;;;34.45;19.75;;;1.90;99.90;;;;;;5095368;28;20040;-55
2022/03/01 03:07:49;;;;;;;31.30;18.25;;;1.90;99.90;;;;;;5095324;28;20024;-55
2022/03/01 03:10:16;;;;;;;31.35;19.05;;;1.80;99.90;;;;;;5095233;28;20520;-55
2022/03/01 03:12:43;;;;;;;32.13;20.48;;;1.80;99.90;;;;;;5095398;28;20036;-55
2022/03/01 03:15:10;;;;;;;31.45;18.80;;;1.90;99.90;;;;;;5095106;28;20453;-55
2022/03/01 03:17:36;;;;;;;31.95;20.45;;;1.90;99.90;;;;;;5095149;28;20115;-55
2022/03/01 03:20:04;;;;;;;32.92;18.58;;;1.90;99.90;;;;;;5095482;28;20038;-55
2022/03/01 03:22:30;;;;;;;31.33;20.50;;;1.90;99.90;;;;;;5094919;28;20028;-55
2022/03/01 03:24:56;;;;;;;34.03;20.40;;;1.90;99.90;;;;;;5095158;28;20090;-55
2022/03/01 03:27:22;;;;;;;41.70;21.88;;;1.90;99.90;;;;;;5095015;28;20523;-55
2022/03/01 03:29:48;;;;;;;37.05;21.30;;;1.90;99.90;;;;;;5095027;28;20032;-55
2022/03/01 03:32:14;;;;;;;34.75;21.73;;;1.90;99.90;;;;;;5094795;28;20069;-55
2022/03/01 03:34:40;;;;;;;34.92;21.80;;;1.90;99.90;;;;;;5095015;28;20470;-55
2022/03/01 03:37:06;;;;;;;35.20;21.80;;;1.80;99.90;;;;;;5094797;28;20458;-55
2022/03/01 03:39:32;;;;;;;41.40;22.77;;;1.80;99.90;;;;;;5094685;28;20032;-55
2022/03/01 03:41:58;;;;;;;37.63;23.17;;;1.80;99.90;;;;;;5094716;28;20458;-55
2022/03/01 03:44:24;;;;;;;36.78;22.75;;;1.70;99.90;;;;;;5094692;28;20081;-55
2022/03/01 03:46:50;;;;;;;36.45;22.85;;;1.70;99.90;;;;;;5094567;28;20106;-55
2022/03/01 03:49:16;;;;;;;39.33;23.73;;;1.70;99.90;;;;;;5094736;28;20024;-55
2022/03/01 03:51:42;;;;;;;35.45;22.42;;;1.60;99.90;;;;;;5094565;28;20115;-55
2022/03/01 03:54:09;;;;;;;34.10;21.90;;;1.70;99.90;;;;;;5094794;28;20039;-55
2022/03/01 03:56:35;;;;;;;40.85;24.10;;;1.70;99.90;;;;;;5094461;28;20554;-55
2022/03/01 03:59:01;;;;;;;41.63;25.23;;;1.70;99.90;;;;;;5094350;28;20189;-55
2022/03/01 04:01:27;;;;;;;40.13;24.80;;;1.80;99.90;;;;;;5094372;28;20150;-55
2022/03/01 04:03:53;;;;;;;39.70;24.15;;;1.80;99.90;;;;;;5094360;28;20032;-55
2022/03/01 04:06:19;;;;;;;36.30;22.65;;;1.70;99.90;;;;;;5094484;28;20107;-55
2022/03/01 04:08:45;;;;;;;33.25;21.20;;;1.70;99.90;;;;;;5094529;28;20036;-55
2022/03/01 04:11:11;;;;;;;31.65;20.73;;;1.60;99.90;;;;;;5094410;28;20067;-55
2022/03/01 04:13:37;;;;;;;27.98;19.83;;;1.60;99.90;;;;;;5094321;28;20028;-55
2022/03/01 04:16:03;;;;;;;31.08;19.77;;;1.60;99.90;;;;;;5094303;28;20317;-55
2022/03/01 04:18:29;;;;;;;28.98;19.70;;;1.70;99.90;;;;;;5094342;28;20028;-55
2022/03/01 04:20:55;;;;;;;28.02;19.30;;;1.80;99.90;;;;;;5094352;28;20486;-55
2022/03/01 04:23:21;;;;;;;28.48;19.58;;;1.80;99.90;;;;;;5094353;28;20040;-55
2022/03/01 04:25:47;;;;;;;27.20;18.65;;;1.70;99.90;;;;;;5094143;28;20024;-55
2022/03/01 04:28:13;;;;;;;29.83;18.58;;;1.60;99.90;;;;;;5094225;28;20542;-55
2022/03/01 04:30:39;;;;;;;26.27;17.88;;;1.60;99.90;;;;;;5094388;28;20028;-55
2022/03/01 04:33:05;;;;;;;22.77;16.20;;;1.60;99.90;;;;;;5094161;28;20405;-55
2022/03/01 04:35:31;;;;;;;23.20;16.10;;;1.50;99.90;;;;;;5094204;28;20080;-55
2022/03/01 04:37:57;;;;;;;23.55;16.27;;;1.50;99.90;;;;;;5094042;28;20550;-55
2022/03/01 04:40:23;;;;;;;22.80;14.80;;;1.50;99.90;;;;;;5094055;28;20103;-55
2022/03/01 04:42:49;;;;;;;20.50;14.40;;;1.50;99.90;;;;;;5094168;28;20036;-55
2022/03/01 04:45:16;;;;;;;24.17;14.68;;;1.50;99.90;;;;;;5094033;28;20065;-55
2022/03/01 04:47:42;;;;;;;21.05;14.10;;;1.40;99.90;;;;;;5094127;28;20059;-55
2022/03/01 04:50:09;;;;;;;21.17;13.73;;;1.40;99.90;;;;;;5094207;28;20034;-55
2022/03/01 04:52:35;;;;;;;18.40;12.57;;;1.40;99.90;;;;;;5094082;28;20032;-55
2022/03/01 04:55:01;;;;;;;18.92;12.18;;;1.40;99.90;;;;;;5093983;28;20057;-55
2022/03/01 04:57:27;;;;;;;17.40;11.88;;;1.30;99.90;;;;;;5093852;28;20113;-55
2022/03/01 04:59:53;;;;;;;17.52;12.05;;;1.40;99.90;;;;;;5093885;28;20051;-55
2022/03/01 05:02:19;;;;;;;17.35;11.18;;;1.30;99.90;;;;;;5093854;28;20028;-55
2022/03/01 05:04:45;;;;;;;17.30;11.40;;;1.30;99.90;;;;;;5093823;28;20449;-55
2022/03/01 05:07:11;;;;;;;17.45;11.77;;;1.30;99.90;;;;;;5094072;28;20040;-55
2022/03/01 05:09:37;;;;;;;17.13;11.57;;;1.40;99.90;;;;;;5096683;28;20070;-55
2022/03/01 05:12:03;;;;;;;14.30;10.82;;;1.40;99.90;;;;;;5097547;28;20026;-55
2022/03/01 05:14:29;;;;;;;19.42;11.57;;;1.30;99.90;;;;;;5097448;28;20028;-55
2022/03/01 05:16:55;;;;;;;16.75;11.75;;;1.40;99.90;;;;;;5097455;28;20032;-55
2022/03/01 05:19:21;;;;;;;16.67;11.13;;;1.40;99.90;;;;;;5097511;28;20282;-55
2022/03/01 05:21:47;;;;;;;18.38;12.38;;;1.40;99.90;;;;;;5097300;28;20493;-55
2022/03/01 05:24:14;;;;;;;20.88;12.57;;;1.30;99.90;;;;;;5097413;28;20454;-55
2022/03/01 05:26:40;;;;;;;16.80;11.13;;;1.20;99.90;;;;;;5097275;28;20020;-55
2022/03/01 05:29:07;;;;;;;21.63;12.85;;;1.30;99.90;;;;;;5097474;28;20032;-55
2022/03/01 05:31:34;;;;;;;18.23;12.85;;;1.30;99.90;;;;;;5097139;28;20016;-55
2022/03/01 05:34:00;;;;;;;23.85;14.10;;;1.40;99.90;;;;;;5097223;28;20028;-55
2022/03/01 05:36:26;;;;;;;14.82;11.70;;;1.40;99.90;;;;;;5097096;28;20458;-55
2022/03/01 05:38:52;;;;;;;22.48;13.27;;;1.40;99.90;;;;;;5096879;28;20044;-55
2022/03/01 05:41:19;;;;;;;24.58;14.43;;;1.50;99.90;;;;;;5096919;28;20020;-55
2022/03/01 05:43:45;;;;;;;20.70;13.63;;;1.50;99.90;;;;;;5096933;28;20486;-55
2022/03/01 05:46:11;;;;;;;23.15;13.70;;;1.40;99.90;;;;;;5097043;28;20431;-55
2022/03/01 05:48:37;;;;;;;17.65;12.98;;;1.50;99.90;;;;;;5097239;28;20028;-55
2022/03/01 05:51:04;;;;;;;21.10;14.43;;;1.60;99.90;;;;;;5096639;28;20043;-55
2022/03/01 05:53:30;;;;;;;20.90;13.02;;;1.50;99.90;;;;;;5096683;28;20035;-55
2022/03/01 05:55:56;;;;;;;23.25;18.17;;;1.50;99.90;;;;;;5096631;28;20032;-55
2022/03/01 05:58:22;;;;;;;24.58;16.00;;;1.50;99.90;;;;;;5096606;28;20048;-55
2022/03/01 06:00:48;;;;;;;23.50;14.68;;;1.50;99.90;;;;;;5096595;28;20431;-55
2022/03/01 06:03:14;;;;;;;24.55;16.77;;;1.60;99.90;;;;;;5096601;28;20024;-55
2022/03/01 06:05:40;;;;;;;21.60;15.88;;;1.60;99.90;;;;;;5096374;28;20519;-55
2022/03/01 06:08:06;;;;;;;23.80;15.50;;;1.50;99.90;;;;;;5096498;28;20029;-55
2022/03/01 06:10:32;;;;;;;26.33;17.15;;;1.60;99.90;;;;;;5096438;28;20089;-55
2022/03/01 06:12:58;;;;;;;34.42;20.25;;;1.60;99.90;;;;;;5096455;28;20109;-55
2022/03/01 06:15:24;;;;;;;35.58;17.75;;;1.70;99.90;;;;;;5096446;28;20126;-55
2022/03/01 06:17:50;;;;;;;36.13;23.13;;;1.80;99.90;;;;;;5096519;28;20032;-55
2022/03/01 06:20:17;;;;;;;33.10;21.38;;;1.90;99.90;;;;;;5095834;28;20028;-55
2022/03/01 06:22:44;;;;;;;31.15;19.75;;;1.80;99.90;;;;;;5096293;28;20031;-55
2022/03/01 06:25:10;;;;;;;34.22;24.25;;;1.90;99.90;;;;;;5096201;28;20027;-55
2022/03/01 06:27:37;;;;;;;35.17;19.92;;;1.80;99.90;;;;;;5096121;28;20020;-55
2022/03/01 06:30:05;;;;;;;28.65;18.23;;;1.90;99.90;;;;;;5096058;28;20040;-55
2022/03/01 06:32:31;;;;;;;27.55;18.83;;;1.90;99.90;;;;;;5096197;28;20049;-55
2022/03/01 06:34:57;;;;;;;31.10;20.15;;;2.00;99.90;;;;;;5095958;28;20111;-55
2022/03/01 06:37:23;;;;;;;34.45;22.75;;;2.00;99.90;;;;;;5095889;28;20063;-55
2022/03/01 06:39:50;;;;;;;41.60;24.55;;;2.00;99.90;;;;;;5095912;28;20032;-55
2022/03/01 06:42:17;;;;;;;36.90;22.52;;;2.00;99.90;;;;;;5095724;28;20017;-55
2022/03/01 06:44:43;;;;;;;33.90;22.15;;;2.00;99.90;;;;;;5095769;28;20038;-55
2022/03/01 06:47:10;;;;;;;30.85;19.15;;;2.00;99.90;;;;;;5095591;28;20036;-55
2022/03/01 06:49:36;;;;;;;32.80;18.38;;;2.00;99.90;;;;;;5095449;28;20469;-55
2022/03/01 06:52:03;;;;;;;35.88;19.85;;;1.90;99.90;;;;;;5095687;28;20044;-55
2022/03/01 06:54:29;;;;;;;26.05;17.98;;;1.90;99.90;;;;;;5095477;28;20024;-55
2022/03/01 06:56:55;;;;;;;31.25;19.73;;;2.00;99.90;;;;;;5095789;28;20080;-55
2022/03/01 06:59:24;;;;;;;34.58;20.90;;;2.00;99.90;;;;;;5095326;28;20051;-55
2022/03/01 07:01:50;;;;;;;36.25;22.10;;;2.00;99.90;;;;;;5095199;28;20025;-55
2022/03/01 07:04:17;;;;;;;36.92;21.42;;;2.00;99.90;;;;;;5095223;28;20039;-55
2022/03/01 07:06:43;;;;;;;32.55;20.23;;;2.00;99.90;;;;;;5095380;28;20026;-55
2022/03/01 07:09:09;;;;;;;34.55;20.30;;;1.80;99.90;;;;;;5095300;28;20040;-55
2022/03/01 07:11:36;;;;;;;50.75;23.55;;;1.90;99.90;;;;;;5095410;28;20028;-55
2022/03/01 07:14:03;;;;;;;45.38;23.10;;;1.80;99.90;;;;;;5095118;28;20044;-55
2022/03/01 07:16:29;;;;;;;47.58;24.15;;;1.90;99.90;;;;;;5095067;28;20028;-55
2022/03/01 07:18:55;;;;;;;58.90;28.17;;;2.00;99.90;;;;;;5095057;28;20031;-55
2022/03/01 07:21:21;;;;;;;57.40;26.95;;;2.00;99.90;;;;;;5095121;28;20039;-55
2022/03/01 07:23:47;;;;;;;80.43;37.75;;;2.00;99.90;;;;;;5095046;28;20055;-55
2022/03/01 07:26:13;;;;;;;59.25;29.95;;;1.90;99.90;;;;;;5095005;28;20051;-55
2022/03/01 07:28:39;;;;;;;50.90;26.88;;;1.90;99.90;;;;;;5095200;28;20028;-55
2022/03/01 07:31:05;;;;;;;37.33;20.17;;;1.90;99.90;;;;;;5094169;28;20381;-55
2022/03/01 07:33:31;;;;;;;38.25;19.10;;;1.90;99.90;;;;;;5094806;28;20119;-55
2022/03/01 07:35:57;;;;;;;46.00;26.08;;;1.80;99.90;;;;;;5094897;28;20024;-55
2022/03/01 07:38:23;;;;;;;29.48;18.67;;;1.80;99.90;;;;;;5094784;28;20031;-55
2022/03/01 07:40:49;;;;;;;39.40;21.65;;;1.80;99.90;;;;;;5094751;28;20028;-55
2022/03/01 07:43:15;;;;;;;47.75;24.85;;;1.90;99.90;;;;;;5094750;28;20027;-55
2022/03/01 07:45:41;;;;;;;41.75;22.38;;;2.00;99.90;;;;;;5094671;28;20420;-55
2022/03/01 07:48:07;;;;;;;42.50;24.70;;;2.00;99.90;;;;;;5094776;28;20027;-55
2022/03/01 07:50:34;;;;;;;37.40;20.90;;;1.90;99.90;;;;;;5094571;28;20028;-55
2022/03/01 07:53:00;;;;;;;32.78;20.48;;;2.10;99.90;;;;;;5094626;28;20035;-55
2022/03/01 07:55:27;;;;;;;26.10;15.65;;;2.10;99.90;;;;;;5094560;28;20028;-55
2022/03/01 07:57:53;;;;;;;31.05;19.65;;;2.20;99.90;;;;;;5094503;28;20071;-56
2022/03/01 08:00:19;;;;;;;35.85;21.10;;;2.30;99.90;;;;;;5094174;28;20520;-55
2022/03/01 08:02:45;;;;;;;48.50;26.05;;;2.40;99.90;;;;;;5094333;28;20032;-55
2022/03/01 08:05:11;;;;;;;48.13;26.77;;;2.20;99.90;;;;;;5094449;28;20048;-55
2022/03/01 08:07:37;;;;;;;43.88;24.02;;;2.40;99.90;;;;;;5094509;28;20090;-55
2022/03/01 08:10:04;;;;;;;40.47;24.48;;;2.40;99.90;;;;;;5094440;28;20466;-55
2022/03/01 08:12:30;;;;;;;28.40;18.08;;;2.50;99.90;;;;;;5094319;28;20103;-55
2022/03/01 08:14:56;;;;;;;32.05;18.77;;;2.50;99.90;;;;;;5094404;28;20469;-55
2022/03/01 08:17:22;;;;;;;42.60;24.17;;;2.60;99.90;;;;;;5094493;28;20032;-54
2022/03/01 08:19:48;;;;;;;49.80;27.15;;;2.50;99.90;;;;;;5094149;28;20046;-55
2022/03/01 08:22:15;;;;;;;29.20;18.33;;;2.60;99.90;;;;;;5094111;28;20059;-55
2022/03/01 08:24:41;;;;;;;42.75;21.75;;;2.50;99.90;;;;;;5094472;28;20020;-55
2022/03/01 08:27:07;;;;;;;39.28;24.88;;;2.40;99.90;;;;;;5094162;28;20027;-55
2022/03/01 08:29:34;;;;;;;35.63;22.13;;;2.40;99.90;;;;;;5094289;28;20512;-55
2022/03/01 08:32:00;;;;;;;33.75;20.48;;;2.50;99.90;;;;;;5094341;28;20033;-55
2022/03/01 08:34:26;;;;;;;36.47;22.65;;;2.50;99.90;;;;;;5094105;28;20036;-55
2022/03/01 08:36:53;;;;;;;26.73;18.20;;;2.50;99.90;;;;;;5094310;28;20031;-55
2022/03/01 08:39:19;;;;;;;34.33;22.35;;;2.40;99.90;;;;;;5094287;28;20354;-55
2022/03/01 08:41:46;;;;;;;34.15;22.63;;;2.40;99.90;;;;;;5093778;28;20032;-55
2022/03/01 08:44:12;;;;;;;36.63;23.55;;;2.50;99.90;;;;;;5096361;28;20047;-55
2022/03/01 08:46:38;;;;;;;30.73;21.27;;;2.40;99.90;;;;;;5098058;28;20074;-55
2022/03/01 08:49:07;;;;;;;34.28;23.23;;;2.30;99.90;;;;;;5097871;28;20056;-55
2022/03/01 08:51:34;;;;;;;33.95;22.25;;;2.40;99.90;;;;;;5097924;28;20489;-55
2022/03/01 08:54:00;;;;;;;33.30;21.88;;;2.40;99.90;;;;;;5097969;28;20477;-55
2022/03/01 08:56:26;;;;;;;33.97;23.20;;;2.30;99.90;;;;;;5097702;28;20107;-55
2022/03/01 08:58:52;;;;;;;36.80;22.90;;;2.30;99.90;;;;;;5097715;28;20044;-55
2022/03/01 09:01:17;;;;;;;36.30;23.08;;;2.30;99.90;;;;;;5097848;28;20492;-55
2022/03/01 09:03:44;;;;;;;48.75;27.15;;;2.30;99.90;;;;;;5097534;28;20036;-55
2022/03/01 09:06:10;;;;;;;35.75;23.40;;;2.30;99.90;;;;;;5097811;28;20516;-55
2022/03/01 09:08:40;;;;;;;53.17;31.98;;;2.20;99.90;;;;;;5097827;28;20028;-55
2022/03/01 09:11:08;;;;;;;76.25;44.50;;;2.00;99.90;;;;;;5097605;28;20028;-55
2022/03/01 09:13:34;;;;;;;72.63;41.17;;;2.10;99.90;;;;;;5097573;28;20297;-55
2022/03/01 09:16:00;;;;;;;44.05;27.90;;;2.10;99.90;;;;;;5097469;28;20592;-55
2022/03/01 09:18:26;;;;;;;48.97;29.10;;;2.10;99.90;;;;;;5097456;28;20043;-55
2022/03/01 09:20:52;;;;;;;59.67;35.10;;;2.00;99.90;;;;;;5097515;28;20024;-55
2022/03/01 09:23:18;;;;;;;154.25;72.03;;;2.00;99.90;;;;;;5097388;28;20024;-55
2022/03/01 09:25:45;;;;;;;126.05;56.67;;;2.00;99.90;;;;;;5097524;28;20027;-55
2022/03/01 09:28:11;;;;;;;69.18;37.50;;;2.10;99.90;;;;;;5097297;28;20111;-55
2022/03/01 09:30:37;;;;;;;125.25;56.05;;;2.10;99.90;;;;;;5097103;28;20032;-55
2022/03/01 09:33:03;;;;;;;120.38;55.92;;;2.10;99.90;;;;;;5097130;28;20028;-55
2022/03/01 09:35:29;;;;;;;63.60;34.42;;;2.10;99.90;;;;;;5097153;28;20582;-55
2022/03/01 09:37:55;;;;;;;66.55;39.58;;;2.10;99.90;;;;;;5096922;28;20440;-55
2022/03/01 09:40:21;;;;;;;55.08;32.80;;;2.10;99.90;;;;;;5096910;28;20036;-55
2022/03/01 09:42:52;;;;;;;47.45;29.27;;;2.10;99.90;;;;;;5097048;28;20054;-55
2022/03/01 09:45:18;;;;;;;62.42;36.15;;;2.00;99.90;;;;;;5096789;28;20036;-55
2022/03/01 09:47:44;;;;;;;64.50;36.38;;;2.00;99.90;;;;;;5096792;28;20559;-55
2022/03/01 09:50:11;;;;;;;61.95;37.70;;;2.10;99.90;;;;;;5096831;28;20474;-55
2022/03/01 09:52:38;;;;;;;67.15;39.03;;;2.10;99.90;;;;;;5096799;28;20033;-55
2022/03/01 09:55:06;;;;;;;58.40;34.20;;;2.10;99.90;;;;;;5096200;28;20024;-55
2022/03/01 09:57:33;;;;;;;57.80;34.88;;;2.20;99.90;;;;;;5096374;28;20066;-55
2022/03/01 09:59:59;;;;;;;69.28;37.95;;;2.20;99.90;;;;;;5096319;28;20040;-55
2022/03/01 10:02:40;;;;;;;79.82;45.20;;;2.30;99.90;;;;;;5096457;28;20031;-55
2022/03/01 10:05:07;;;;;;;69.32;39.78;;;2.20;99.90;;;;;;5095426;28;20386;-55
2022/03/01 10:07:34;;;;;;;54.60;32.72;;;2.30;99.90;;;;;;5096464;28;20044;-55
2022/03/01 10:10:06;;;;;;;53.65;31.25;;;2.20;99.90;;;;;;5096469;28;20112;-55
2022/03/01 10:12:32;;;;;;;74.60;39.00;;;2.30;99.90;;;;;;5096424;28;20550;-55
2022/03/01 10:15:06;;;;;;;55.15;32.90;;;2.30;99.90;;;;;;5096326;28;20024;-55
2022/03/01 10:17:38;;;;;;;36.55;24.85;;;2.40;99.90;;;;;;5096128;28;20107;-55
2022/03/01 10:20:11;;;;;;;43.40;27.25;;;2.40;99.90;;;;;;5096157;28;20075;-55
2022/03/01 10:22:45;;;;;;;42.20;26.08;;;2.40;99.90;;;;;;5096183;28;20032;-55
2022/03/01 10:25:13;;;;;;;49.55;29.85;;;2.60;99.90;;;;;;5096450;28;20098;-55
2022/03/01 10:27:39;;;;;;;42.47;27.35;;;2.70;99.90;;;;;;5096104;28;20028;-55
2022/03/01 10:30:07;;;;;;;52.72;30.52;;;2.70;99.90;;;;;;5096034;28;20053;-55
2022/03/01 10:32:33;;;;;;;48.08;29.92;;;2.70;99.90;;;;;;5096060;28;20028;-55
2022/03/01 10:35:09;;;;;;;44.88;28.27;;;2.60;99.90;;;;;;5095901;28;20032;-55
2022/03/01 10:37:37;;;;;;;47.10;29.70;;;2.70;99.90;;;;;;5095998;28;20056;-55
2022/03/01 10:40:21;;;;;;;37.90;24.30;;;2.60;99.90;;;;;;5095794;28;20401;-55
2022/03/01 10:43:10;;;;;;;48.38;25.92;;;2.60;99.90;;;;;;5095625;28;20030;-55
2022/03/01 10:45:49;;;;;;;57.30;35.53;;;2.60;99.90;;;;;;5095495;28;20028;-55
2022/03/01 10:48:29;;;;;;;55.45;32.22;;;2.60;99.90;;;;;;5095569;28;20435;-55
2022/03/01 10:51:08;;;;;;;45.30;26.35;;;2.60;99.90;;;;;;5095636;28;20016;-55
2022/03/01 10:53:38;;;;;;;37.45;23.45;;;2.60;99.90;;;;;;5095644;28;20389;-55
2022/03/01 10:56:06;;;;;;;39.50;25.35;;;2.70;99.90;;;;;;5095395;28;20036;-55
2022/03/01 10:58:35;;;;;;;40.28;23.88;;;2.80;99.90;;;;;;5095227;28;20077;-55
2022/03/01 11:01:02;;;;;;;40.40;25.80;;;2.80;99.90;;;;;;5095491;28;20028;-55
2022/03/01 11:03:30;;;;;;;39.25;26.05;;;3.10;99.90;;;;;;5095224;28;20087;-55
2022/03/01 11:05:57;;;;;;;42.88;26.17;;;3.40;99.90;;;;;;5094583;28;20244;-55
2022/03/01 11:08:35;;;;;;;50.92;29.17;;;3.30;99.90;;;;;;5095397;28;20059;-55
2022/03/01 11:11:05;;;;;;;39.88;23.85;;;3.50;99.90;;;;;;5095326;28;20035;-55
2022/03/01 11:13:34;;;;;;;51.70;29.60;;;3.20;99.90;;;;;;5095076;28;20377;-55
2022/03/01 11:16:25;;;;;;;45.35;27.70;;;3.10;99.90;;;;;;5095126;28;20423;-55
2022/03/01 11:18:54;;;;;;;35.15;23.60;;;3.30;99.90;;;;;;5095138;28;20078;-55
2022/03/01 11:21:21;;;;;;;38.38;23.90;;;3.60;99.90;;;;;;5095139;28;20084;-55
2022/03/01 11:23:48;;;;;;;42.10;26.17;;;3.70;99.90;;;;;;5095280;28;20462;-55
2022/03/01 11:26:16;;;;;;;38.35;23.27;;;3.70;99.90;;;;;;5094994;28;20036;-55
2022/03/01 11:28:55;;;;;;;50.78;30.35;;;3.50;99.90;;;;;;5094927;28;20036;-55
2022/03/01 11:31:25;;;;;;;53.88;31.65;;;3.50;99.90;;;;;;5095002;28;20055;-55
2022/03/01 11:33:56;;;;;;;49.40;29.00;;;3.50;99.90;;;;;;5095167;28;20024;-55
2022/03/01 11:36:25;;;;;;;57.33;32.80;;;3.40;99.90;;;;;;5094916;28;20032;-55
2022/03/01 11:38:51;;;;;;;52.30;30.05;;;3.40;99.90;;;;;;5094795;28;20024;-55
2022/03/01 11:41:22;;;;;;;49.58;29.35;;;3.30;99.90;;;;;;5094659;28;20027;-55
2022/03/01 11:43:57;;;;;;;46.55;26.42;;;3.40;99.90;;;;;;5094753;28;20492;-55
2022/03/01 11:46:23;;;;;;;54.03;29.65;;;3.20;99.90;;;;;;5094675;28;20495;-55
2022/03/01 11:48:57;;;;;;;51.83;28.60;;;3.30;99.90;;;;;;5094876;28;20036;-55
2022/03/01 11:51:40;;;;;;;43.78;25.10;;;3.10;99.90;;;;;;5094600;28;20027;-55
2022/03/01 11:54:10;;;;;;;55.45;31.38;;;3.10;99.90;;;;;;5094578;28;20117;-55
2022/03/01 11:56:38;;;;;;;66.95;36.25;;;3.20;99.90;;;;;;5094533;28;20032;-55
2022/03/01 11:59:12;;;;;;;56.67;30.73;;;3.10;99.90;;;;;;5094425;28;20040;-55
2022/03/01 12:01:38;;;;;;;58.15;31.23;;;3.00;99.90;;;;;;5094430;28;20055;-55
2022/03/01 12:04:06;;;;;;;48.83;27.70;;;3.00;99.90;;;;;;5094386;28;20031;-55
2022/03/01 12:06:34;;;;;;;47.53;27.92;;;3.10;99.90;;;;;;5094618;28;20028;-55
2022/03/01 12:09:05;;;;;;;51.60;29.58;;;3.20;99.90;;;;;;5094736;28;20393;-55
2022/03/01 12:11:39;;;;;;;40.83;24.25;;;3.10;99.90;;;;;;5094549;28;20055;-55
2022/03/01 12:14:09;;;;;;;41.03;26.33;;;3.00;99.90;;;;;;5094338;28;20107;-55
2022/03/01 12:16:37;;;;;;;46.10;26.98;;;3.00;99.90;;;;;;5094413;28;20056;-55
2022/03/01 12:19:07;;;;;;;55.15;29.88;;;2.90;99.90;;;;;;5098024;28;20078;-55
2022/03/01 12:21:33;;;;;;;38.80;24.08;;;3.00;99.90;;;;;;5098979;28;20107;-55
2022/03/01 12:23:59;;;;;;;53.65;28.13;;;2.80;99.90;;;;;;5098606;28;20031;-55
2022/03/01 12:26:27;;;;;;;41.90;27.15;;;2.70;99.90;;;;;;5098445;28;20373;-55
2022/03/01 12:28:59;;;;;;;60.90;31.98;;;2.90;99.90;;;;;;5098336;28;20028;-55
2022/03/01 12:31:28;;;;;;;45.20;26.08;;;3.00;99.90;;;;;;5098363;28;20024;-55
2022/03/01 12:34:03;;;;;;;53.88;28.40;;;3.00;99.90;;;;;;5098325;28;20445;-55
2022/03/01 12:36:34;;;;;;;45.72;27.73;;;3.00;99.90;;;;;;5098104;28;20043;-55